Skip Navigation Links
NOAA logo - Click to go to the NOAA homepage
NOAA's National Weather Service
Alaska Aviation Weather Unit
  NWS logo - Click to go to the NWS homepage
Left Navbar Graphic     00 AKDT = 08 GMT

   
NOAA is celebrating 200 years of science, service, and stewardship. Visit the NOAA 200th celebration Web site to learn more.
USA.gov is the U.S. Government's official Web portal to all Federal, state and local government Web resources and services.
Facebook
NWS on Facebook

Important Change Regarding the AAWU Web Presence

 

Over the last several months, the AAWU has been working to navigate its webpages to a nationally supported server. Security, as well as other needs, have necessitated the change.  We have been given an extension for the site changeover while we diligently work at addressing feedback received. As of July 14, 2017, aawu.arh.noaa.gov will be discontinued. The new AAWU web address is weather.gov/aawu. It is now live and will run in-parallel with the old site until it is discontinued on July 14, 2017. Please continue to send any feedback or questions regarding the new webpages to nws.ar.aawu.webauthors@noaa.gov.  Thank you for your patience during this time of transition.
AAWU Home :: Display TAF Add Bookmark
TAF CYZP 101838Z 1019/1107 09005KT P6SM SCT007 TEMPO 1019/1020 BKN007
    FM102000 09006KT P6SM SCT010 SCT200
    RMK FCST BASED ON AUTO OBS. NXT FCST BY 110100Z=

METAR CYZP 240200Z AUTO 00000KT 9SM -RA OVC130 15/14 A2994 RMK SLP139= SPECI CYZP 240206Z AUTO VRB02KT 9SM OVC130 15/14 A2993 RMK SLP138= SPECI CYZP 240223Z AUTO 00000KT 9SM -RA SCT022 OVC130 15/14 A2994 RMK SLP139= SPECI CYZP 240236Z AUTO VRB02KT 9SM SCT020 BKN033 OVC140 15/14 A2994 RMK SLP141= METAR CYZP 240300Z AUTO 00000KT 9SM SCT026 BKN031 OVC150 15/14 A2994 RMK SLP141= SPECI CYZP 240337Z AUTO 15011KT 9SM FEW095 OVC150 15/14 A2993 RMK SLP138= METAR CYZP 240400Z AUTO 19007G15KT 9SM FEW024 BKN065 BKN087 OVC150 15/14 A2994 RMK SLP139= SPECI CYZP 240425Z AUTO 22005KT 9SM -RA FEW050 SCT070 BKN089 BKN130 15/14 A2994 RMK SLP140= METAR CYZP 240500Z AUTO 27005KT 9SM SCT050 BKN065 BKN082 OVC100 15/14 A2995 RMK SLP144= SPECI CYZP 240504Z AUTO 26006KT 8SM -RA BKN048 BKN065 BKN082 OVC100 15/14 A2995 RMK SLP144= SPECI CYZP 240506Z AUTO 26005KT 5SM -RA BR BKN050 BKN065 OVC082 15/14 A2996 RMK SLP145= SPECI CYZP 240514Z AUTO 23003KT 210V270 3SM +RA BR BKN048 BKN060 OVC081 14/14 A2995 RMK SLP143= SPECI CYZP 240515Z AUTO 23003KT 210V270 2 1/4SM +RA BR BKN048 BKN060 OVC081 14/14 A2995 RMK SLP143= SPECI CYZP 240524Z AUTO 24003KT 220V320 3SM +RA BR BKN048 OVC070 14/14 A2995 RMK SLP143= SPECI CYZP 240527Z AUTO VRB02KT 3SM RA BR BKN048 BKN060 OVC070 14/14 A2995 RMK SLP143= SPECI CYZP 240537Z AUTO 15005KT 6SM -RA BR SCT046 BKN055 BKN070 OVC084 14/14 A2994 RMK SLP141= SPECI CYZP 240556Z AUTO 16007KT 9SM OVC065 14/14 A2994 RMK SLP139= METAR CYZP 240600Z AUTO 17010KT 9SM OVC065 14/14 A2994 RMK PCPN 2.8MM PAST HR SLP139= SPECI CYZP 240602Z AUTO 17009KT 9SM -RA OVC065 14/14 A2994 RMK SLP139= SPECI CYZP 240648Z AUTO 16006KT 5SM -RA BR BKN055 BKN069 OVC080 14/14 A2993 RMK SLP137= SPECI CYZP 240656Z AUTO 15007KT 110V180 6SM -RA BR BKN050 OVC090 14/14 A2993 RMK PRESFR SLP136= METAR CYZP 240700Z AUTO 15009KT 6SM -RA BR SCT050 OVC095 14/14 A2993 RMK SLP136= SPECI CYZP 240716Z AUTO 16007KT 9SM SCT048 BKN090 OVC130 14/14 A2993 RMK SLP136= METAR CYZP 240800Z AUTO 13007KT 120V190 9SM FEW055 OVC100 14/14 A2992 RMK SLP134=
 Alaska TAF Map

NOAA's National Weather Service
Alaska Aviation Weather Unit
6930 Sand Lake Road
Anchorage, AK 99502-1845
Disclaimer
Credits
Glossary
Privacy Policy
About Us
Career Opportunities
Contact AAWU Internet Services Site last modified: April, 17th 2012